createdAt,value
2023-02-27T00:04:29.809Z,97391.00
2023-02-27T00:09:50.617Z,97385.31
2023-02-27T00:15:14.725Z,97382.78
2023-02-27T00:20:38.265Z,97388.75
2023-02-27T00:26:01.041Z,97391.25
2023-02-27T00:31:21.781Z,97397.41
2023-02-27T00:36:42.732Z,97399.91
2023-02-27T00:42:03.821Z,97406.88
2023-02-27T00:47:25.094Z,97412.06
2023-02-27T00:52:47.065Z,97406.69
2023-02-27T00:58:07.782Z,97402.19
2023-02-27T01:03:28.741Z,97403.59
2023-02-27T01:08:49.791Z,97404.00
2023-02-27T01:14:10.569Z,97398.56
2023-02-27T01:19:31.435Z,97402.91
2023-02-27T01:24:52.297Z,97405.47
2023-02-27T01:30:15.758Z,97402.84
2023-02-27T01:35:39.496Z,97409.47
2023-02-27T01:41:00.782Z,97401.78
2023-02-27T01:46:21.903Z,97412.03
2023-02-27T01:51:47.898Z,97417.13
2023-02-27T01:57:09.862Z,97423.13
2023-02-27T02:02:36.447Z,97428.34
2023-02-27T02:07:58.292Z,97435.69
2023-02-27T02:13:21.803Z,97434.91
2023-02-27T02:19:13.270Z,97444.69
2023-02-27T02:24:34.666Z,97441.63
2023-02-27T02:30:25.975Z,97440.00
2023-02-27T02:36:22.806Z,97445.84
2023-02-27T02:42:03.651Z,97449.56
2023-02-27T02:47:36.361Z,97452.69
2023-02-27T02:53:36.658Z,97457.00
2023-02-27T02:59:08.685Z,97456.28
2023-02-27T03:05:00.481Z,97465.47
2023-02-27T03:10:26.947Z,97470.28
2023-02-27T03:16:15.919Z,97472.47
2023-02-27T03:21:43.551Z,97470.59
2023-02-27T03:27:07.138Z,97476.59
2023-02-27T03:32:42.614Z,97486.38
2023-02-27T03:38:11.969Z,97487.56
2023-02-27T03:43:48.019Z,97486.34
2023-02-27T03:49:10.156Z,97485.41
2023-02-27T03:54:37.574Z,97488.06
2023-02-27T03:59:59.222Z,97497.56
2023-02-27T04:05:21.307Z,97494.28
2023-02-27T04:11:15.903Z,97498.69
2023-02-27T04:16:46.701Z,97505.63
2023-02-27T04:22:46.165Z,97501.22
2023-02-27T04:28:36.957Z,97511.47
2023-02-27T04:34:08.492Z,97509.94
2023-02-27T04:39:34.774Z,97514.63
2023-02-27T04:45:00.694Z,97512.38
2023-02-27T04:50:31.062Z,97512.09
2023-02-27T04:56:01.896Z,97510.97
2023-02-27T05:01:30.090Z,97513.69
2023-02-27T05:06:54.867Z,97523.69
2023-02-27T05:12:21.782Z,97530.22
2023-02-27T05:17:53.559Z,97532.66
2023-02-27T05:23:42.570Z,97533.44
2023-02-27T05:29:17.618Z,97528.72
2023-02-27T05:34:47.764Z,97543.56
2023-02-27T05:40:12.593Z,97543.97
2023-02-27T05:45:36.922Z,97541.41
2023-02-27T05:50:59.143Z,97551.06
2023-02-27T05:56:25.554Z,97560.41
2023-02-27T06:01:46.682Z,97566.53
2023-02-27T06:07:08.591Z,97570.59
2023-02-27T06:12:29.440Z,97579.16
2023-02-27T06:17:50.474Z,97590.50
2023-02-27T06:23:11.990Z,97593.03
2023-02-27T06:28:32.641Z,97587.13
2023-02-27T06:33:55.667Z,97599.91
2023-02-27T06:39:16.837Z,97604.59
2023-02-27T06:44:38.176Z,97605.31
2023-02-27T06:50:00.031Z,97610.28
2023-02-27T06:55:22.745Z,97613.00
2023-02-27T07:00:43.872Z,97613.88
2023-02-27T07:06:05.018Z,97620.22
2023-02-27T07:11:26.016Z,97628.56
2023-02-27T07:16:50.922Z,97634.47
2023-02-27T07:22:11.790Z,97643.81
2023-02-27T07:27:33.192Z,97642.00
2023-02-27T07:32:54.132Z,97637.47
2023-02-27T07:38:24.093Z,97650.88
2023-02-27T08:07:00.823Z,97659.41
2023-02-27T08:12:22.267Z,97648.72
2023-02-27T08:17:45.691Z,97653.75
2023-02-27T08:23:07.052Z,97654.97
2023-02-27T08:28:28.425Z,97658.16
2023-02-27T08:33:55.277Z,97650.31
2023-02-27T08:39:19.108Z,97652.59
2023-02-27T08:44:40.289Z,97661.13
2023-02-27T08:50:01.113Z,97658.59
2023-02-27T08:55:22.088Z,97667.78
2023-02-27T09:00:42.849Z,97662.69
2023-02-27T09:06:03.557Z,97665.84
2023-02-27T09:11:25.108Z,97678.41
2023-02-27T09:16:46.887Z,97673.31
2023-02-27T09:22:07.708Z,97678.19
2023-02-27T09:27:28.341Z,97680.75
2023-02-27T09:32:49.973Z,97682.34
2023-02-27T09:38:12.267Z,97688.91
2023-02-27T09:44:01.652Z,97693.28
2023-02-27T09:49:26.307Z,97689.31
2023-02-27T09:54:48.820Z,97691.47
2023-02-27T10:00:35.451Z,97690.16
2023-02-27T10:06:28.013Z,97695.34
2023-02-27T10:12:16.953Z,97701.78
2023-02-27T10:17:50.167Z,97698.25
2023-02-27T10:23:18.330Z,97697.53
2023-02-27T10:28:39.520Z,97700.84
2023-02-27T10:34:02.467Z,97704.13
2023-02-27T10:39:24.490Z,97696.75
2023-02-27T10:44:45.209Z,97699.00
2023-02-27T10:50:20.510Z,97703.78
2023-02-27T10:55:43.044Z,97700.81
2023-02-27T11:01:15.023Z,97700.09
2023-02-27T11:06:36.135Z,97701.91
2023-02-27T11:12:12.146Z,97701.97
2023-02-27T11:17:34.797Z,97700.72
2023-02-27T11:23:23.141Z,97698.88
2023-02-27T11:28:44.016Z,97694.34
2023-02-27T11:34:05.793Z,97696.47
2023-02-27T11:39:40.570Z,97690.81
2023-02-27T11:45:14.486Z,97693.91
2023-02-27T11:51:05.149Z,97693.13
2023-02-27T11:56:37.081Z,97689.88
2023-02-27T12:02:05.638Z,97688.28
2023-02-27T12:07:34.273Z,97690.03
2023-02-27T12:13:06.696Z,97680.19
2023-02-27T12:18:38.300Z,97673.69
2023-02-27T12:24:23.834Z,97671.88
2023-02-27T12:29:50.960Z,97674.75
2023-02-27T12:35:24.626Z,97676.41
2023-02-27T12:41:06.066Z,97674.72
2023-02-27T12:47:17.740Z,97673.53
2023-02-27T12:52:56.900Z,97669.00
2023-02-27T12:58:36.494Z,97665.72
2023-02-27T13:04:15.685Z,97662.16
2023-02-27T13:09:54.808Z,97663.34
2023-02-27T13:15:25.550Z,97655.66
2023-02-27T13:21:09.322Z,97654.13
2023-02-27T13:26:42.027Z,97651.44
2023-02-27T13:32:41.343Z,97657.22
2023-02-27T13:38:28.561Z,97648.94
2023-02-27T13:43:57.378Z,97648.22
2023-02-27T13:49:29.284Z,97650.00
2023-02-27T13:54:51.950Z,97653.66
2023-02-27T14:00:29.283Z,97660.03
2023-02-27T14:05:53.111Z,97663.06
2023-02-27T14:11:22.529Z,97670.06
2023-02-27T14:16:52.944Z,97672.06
2023-02-27T14:22:16.654Z,97679.38
2023-02-27T14:27:51.599Z,97666.69
2023-02-27T14:33:15.003Z,97678.63
2023-02-27T14:38:38.357Z,97679.38
2023-02-27T14:43:59.945Z,97685.34
2023-02-27T14:49:39.116Z,97692.88
2023-02-27T14:55:29.295Z,97698.59
2023-02-27T15:01:02.556Z,97695.16
2023-02-27T15:06:45.355Z,97693.66
2023-02-27T15:12:06.601Z,97700.94
2023-02-27T15:17:37.410Z,97707.03
2023-02-27T15:23:01.591Z,97709.22
2023-02-27T15:28:37.252Z,97716.56
2023-02-27T15:34:00.495Z,97712.31
2023-02-27T15:39:26.720Z,97720.81
2023-02-27T15:44:48.942Z,97718.09
2023-02-27T15:50:41.877Z,97724.69
2023-02-27T15:56:07.671Z,97722.16
2023-02-27T16:01:32.556Z,97732.75
2023-02-27T16:07:08.353Z,97738.03
2023-02-27T16:12:33.183Z,97747.56
2023-02-27T16:18:07.824Z,97750.28
2023-02-27T16:23:31.960Z,97752.13
2023-02-27T16:29:00.078Z,97757.97
2023-02-27T16:34:48.373Z,97760.63
2023-02-27T16:40:23.422Z,97765.09
2023-02-27T16:45:51.659Z,97769.19
2023-02-27T16:51:17.980Z,97763.16
2023-02-27T16:56:39.111Z,97771.00
2023-02-27T17:02:02.689Z,97771.75
2023-02-27T17:07:23.700Z,97774.34
2023-02-27T17:12:44.487Z,97782.03
2023-02-27T17:18:05.256Z,97791.31
2023-02-27T17:23:26.321Z,97799.06
2023-02-27T17:28:47.115Z,97799.81
2023-02-27T17:34:11.340Z,97805.41
2023-02-27T17:39:33.571Z,97804.59
2023-02-27T17:44:54.531Z,97816.53
2023-02-27T17:50:15.764Z,97820.16
2023-02-27T17:55:40.423Z,97823.22
2023-02-27T18:01:07.058Z,97828.50
2023-02-27T18:06:28.801Z,97830.16
2023-02-27T18:11:49.970Z,97825.03
2023-02-27T18:17:12.606Z,97831.75
2023-02-27T18:22:33.450Z,97845.31
2023-02-27T18:27:57.372Z,97838.84
2023-02-27T18:33:19.706Z,97845.63
2023-02-27T18:38:41.349Z,97848.44
2023-02-27T18:44:02.310Z,97846.41
2023-02-27T18:49:23.544Z,97843.38
2023-02-27T18:54:44.545Z,97853.06
2023-02-27T19:00:07.080Z,97847.94
2023-02-27T19:05:28.201Z,97864.97
2023-02-27T19:10:49.147Z,97864.25
2023-02-27T19:16:10.299Z,97858.22
2023-02-27T19:21:31.469Z,97863.13
2023-02-27T19:26:53.500Z,97868.13
2023-02-27T19:32:14.839Z,97864.75
2023-02-27T19:37:35.886Z,97867.41
2023-02-27T19:42:56.584Z,97868.22
2023-02-27T19:48:19.768Z,97869.81
2023-02-27T19:53:42.471Z,97873.16
2023-02-27T19:59:03.396Z,97874.75
2023-02-27T20:04:24.526Z,97882.44
2023-02-27T20:09:45.271Z,97883.31
2023-02-27T20:15:10.951Z,97894.22
2023-02-27T20:20:32.130Z,97890.56
2023-02-27T20:25:53.349Z,97890.09
2023-02-27T20:31:16.589Z,97890.09
2023-02-27T20:36:39.378Z,97893.19
2023-02-27T20:42:00.716Z,97893.19
2023-02-27T20:47:21.510Z,97899.34
2023-02-27T20:52:42.233Z,97897.28
2023-02-27T20:58:03.420Z,97897.63
2023-02-27T21:03:26.270Z,97895.34
2023-02-27T21:08:49.715Z,97894.63
2023-02-27T21:14:11.594Z,97892.84
2023-02-27T21:19:32.338Z,97891.09
2023-02-27T21:24:53.766Z,97898.84
2023-02-27T21:30:15.388Z,97899.59
2023-02-27T21:35:36.079Z,97896.28
2023-02-27T21:40:58.298Z,97887.19
2023-02-27T21:46:20.810Z,97893.41
2023-02-27T21:51:41.673Z,97890.69
2023-02-27T21:57:03.311Z,97890.56
2023-02-27T22:02:24.093Z,97889.69
2023-02-27T22:07:44.848Z,97883.69
2023-02-27T22:13:05.518Z,97883.00
2023-02-27T22:18:27.254Z,97885.31
2023-02-27T22:23:48.829Z,97882.88
2023-02-27T22:29:10.140Z,97874.25
2023-02-27T22:34:31.081Z,97877.69
2023-02-27T22:39:51.672Z,97877.81
2023-02-27T22:45:12.483Z,97878.97
2023-02-27T22:50:33.176Z,97874.75
2023-02-27T22:55:55.856Z,97873.88
2023-02-27T23:01:16.629Z,97881.72
2023-02-27T23:06:39.535Z,97878.34
2023-02-27T23:12:03.342Z,97875.00
2023-02-27T23:17:24.283Z,97882.72
2023-02-27T23:22:45.122Z,97884.50
2023-02-27T23:28:06.810Z,97881.88
2023-02-27T23:33:29.269Z,97888.66
2023-02-27T23:38:49.875Z,97886.00
2023-02-27T23:44:10.602Z,97888.06
2023-02-27T23:49:31.295Z,97881.53
2023-02-27T23:54:52.113Z,97882.03
